Time;durP1;ratioP1;P1;durP2;ratioP2;P2;SDS_P1;SDS_P2;PMS_P1;PMS_P2;Temp;Humidity;BMP_temperature;BMP_pressure;BME280_temperature;BME280_humidity;BME280_pressure;Samples;Min_cycle;Max_cycle;Signal;HPM_P1;HPM_P2
2021/12/03 00:01:44;;;;;;;32.63;18.60;;;;;;;-2.36;100.00;101109.47;5072377;28;20044;-83
2021/12/03 00:04:10;;;;;;;34.17;17.73;;;;;;;-2.34;100.00;101105.31;5072419;28;20439;-83
2021/12/03 00:06:37;;;;;;;35.00;18.65;;;;;;;-2.46;100.00;101095.53;5071585;28;20020;-83
2021/12/03 00:09:05;;;;;;;33.65;17.70;;;;;;;-2.38;100.00;101109.44;5072218;28;20032;-83
2021/12/03 00:11:31;;;;;;;38.35;18.65;;;;;;;-2.39;100.00;101117.94;5071845;28;20431;-83
2021/12/03 00:13:57;;;;;;;39.67;20.08;;;;;;;-2.40;100.00;101103.41;5070440;28;20139;-83
2021/12/03 00:16:22;;;;;;;36.83;20.67;;;;;;;-2.44;100.00;101095.63;5081736;28;20031;-83
2021/12/03 00:18:47;;;;;;;40.08;21.58;;;;;;;-2.41;100.00;101108.47;5071725;28;20570;-83
2021/12/03 00:21:13;;;;;;;47.53;23.05;;;;;;;-2.51;100.00;101098.78;5084504;28;20145;-83
2021/12/03 00:23:39;;;;;;;47.00;23.35;;;;;;;-2.43;100.00;101102.44;5092084;28;20020;-83
2021/12/03 00:26:07;;;;;;;46.47;22.67;;;;;;;-2.37;100.00;101117.97;5091379;28;20099;-83
2021/12/03 00:28:33;;;;;;;48.60;25.65;;;;;;;-2.41;100.00;101113.59;5077567;28;20078;-83
2021/12/03 00:31:00;;;;;;;51.45;24.95;;;;;;;-2.39;100.00;101115.38;5072348;28;20107;-83
2021/12/03 00:33:27;;;;;;;47.30;24.17;;;;;;;-2.47;100.00;101115.94;5077192;28;20027;-83
2021/12/03 00:35:53;;;;;;;50.60;25.75;;;;;;;-2.48;100.00;101104.00;5091859;28;20069;-83
2021/12/03 00:38:18;;;;;;;48.80;25.55;;;;;;;-2.42;100.00;101120.38;5079692;28;20108;-83
2021/12/03 00:40:44;;;;;;;59.28;27.10;;;;;;;-2.41;100.00;101121.25;5070687;28;20031;-83
2021/12/03 00:43:11;;;;;;;56.22;27.17;;;;;;;-2.43;100.00;101127.97;5071718;28;20024;-83
2021/12/03 00:45:37;;;;;;;58.38;27.10;;;;;;;-2.47;100.00;101118.47;5071246;28;20021;-83
2021/12/03 00:48:03;;;;;;;56.65;27.52;;;;;;;-2.48;100.00;101119.31;5077439;28;20099;-83
2021/12/03 00:50:30;;;;;;;63.40;27.63;;;;;;;-2.53;100.00;101110.63;5087705;28;20562;-83
2021/12/03 00:52:56;;;;;;;57.55;29.67;;;;;;;-2.51;100.00;101120.06;5092059;28;20460;-82
2021/12/03 00:55:23;;;;;;;66.60;31.67;;;;;;;-2.53;100.00;101108.06;5086493;28;20033;-83
2021/12/03 00:57:48;;;;;;;69.25;32.55;;;;;;;-2.44;100.00;101131.34;5071268;28;20043;-82
2021/12/03 01:00:28;;;;;;;62.60;30.90;;;;;;;-2.52;100.00;101125.97;5085369;28;20119;-83
2021/12/03 01:02:56;;;;;;;63.85;31.05;;;;;;;-2.50;100.00;101126.03;5091156;28;20078;-83
2021/12/03 01:05:22;;;;;;;68.43;31.42;;;;;;;-2.46;100.00;101133.84;5094376;28;20032;-83
2021/12/03 01:07:47;;;;;;;68.60;32.13;;;;;;;-2.47;100.00;101123.59;5087920;28;20032;-83
2021/12/03 01:10:13;;;;;;;76.35;34.83;;;;;;;-2.56;100.00;101105.41;5074820;28;20086;-83
2021/12/03 01:12:39;;;;;;;75.82;34.25;;;;;;;-2.45;100.00;101124.53;5075569;28;20020;-83
2021/12/03 01:15:08;;;;;;;79.53;37.03;;;;;;;-2.37;100.00;101138.41;5090487;28;20463;-83
2021/12/03 01:17:34;;;;;;;97.45;40.63;;;;;;;-2.31;100.00;101135.19;5090023;28;20060;-83
2021/12/03 01:20:04;;;;;;;91.00;39.70;;;;;;;-2.31;100.00;101122.44;5075515;28;20496;-83
2021/12/03 01:22:30;;;;;;;90.55;41.28;;;;;;;-2.15;100.00;101128.09;5074371;28;20143;-83
2021/12/03 01:24:55;;;;;;;96.50;41.72;;;;;;;-2.15;100.00;101134.88;5075161;28;20111;-82
2021/12/03 01:27:20;;;;;;;92.95;41.80;;;;;;;-2.17;100.00;101131.41;5085702;28;20393;-82
2021/12/03 01:29:46;;;;;;;103.22;42.17;;;;;;;-2.18;100.00;101143.31;5074434;28;20420;-83
2021/12/03 01:32:11;;;;;;;91.57;40.33;;;;;;;-2.10;100.00;101142.69;5075000;28;20067;-83
2021/12/03 01:34:36;;;;;;;97.18;41.35;;;;;;;-2.14;100.00;101129.81;5075332;28;20451;-83
2021/12/03 01:37:02;;;;;;;98.65;40.85;;;;;;;-2.21;100.00;101130.44;5074177;28;20462;-83
2021/12/03 01:39:28;;;;;;;96.93;39.40;;;;;;;-2.12;100.00;101137.53;5087782;28;20028;-83
2021/12/03 01:41:53;;;;;;;88.00;38.50;;;;;;;-2.14;100.00;101139.16;5095666;28;20456;-83
2021/12/03 01:44:18;;;;;;;86.63;38.15;;;;;;;-2.19;100.00;101136.47;5094425;28;20035;-83
2021/12/03 01:46:44;;;;;;;88.68;36.83;;;;;;;-2.12;100.00;101135.84;5095193;28;20426;-83
2021/12/03 01:49:11;;;;;;;93.00;38.70;;;;;;;-2.08;100.00;101135.94;5076741;28;20426;-83
2021/12/03 01:51:36;;;;;;;98.13;38.67;;;;;;;-2.09;100.00;101121.41;5073463;28;20074;-83
2021/12/03 01:54:02;;;;;;;104.00;39.25;;;;;;;-2.01;100.00;101127.66;5088907;28;20111;-83
2021/12/03 01:56:27;;;;;;;105.15;41.38;;;;;;;-1.95;100.00;101117.63;5094985;28;20495;-83
2021/12/03 01:58:54;;;;;;;134.57;48.22;;;;;;;-1.80;100.00;101124.91;5078433;28;20036;-83
2021/12/03 02:01:23;;;;;;;169.23;53.92;;;;;;;-1.68;100.00;101115.94;5093103;28;20429;-83
2021/12/03 02:03:52;;;;;;;172.07;52.83;;;;;;;-1.78;100.00;101096.03;5094774;28;20024;-83
2021/12/03 02:06:19;;;;;;;211.00;57.42;;;;;;;-1.64;100.00;101109.22;5090162;28;20029;-83
2021/12/03 02:08:45;;;;;;;223.77;62.50;;;;;;;-1.55;100.00;101134.19;5074343;28;20017;-83
2021/12/03 02:11:12;;;;;;;249.77;64.30;;;;;;;-1.84;100.00;101080.50;5074508;28;20030;-83
2021/12/03 02:13:38;;;;;;;239.65;64.25;;;;;;;-1.47;100.00;101128.50;5072735;28;20519;-83
2021/12/03 02:16:05;;;;;;;294.20;65.60;;;;;;;-1.49;100.00;101121.59;5089753;28;20075;-84
2021/12/03 02:18:30;;;;;;;315.20;66.25;;;;;;;-1.45;100.00;101142.19;5073061;28;20027;-83
2021/12/03 02:21:01;;;;;;;307.90;67.45;;;;;;;-1.42;100.00;101146.53;5070542;28;20021;-83
2021/12/03 02:23:30;;;;;;;330.35;66.80;;;;;;;-1.41;100.00;101145.72;5073910;28;20036;-83
2021/12/03 02:25:58;;;;;;;279.05;65.18;;;;;;;-1.55;100.00;101113.75;5073482;28;20062;-83
2021/12/03 02:28:29;;;;;;;300.20;66.13;;;;;;;-1.86;100.00;101056.59;5073033;28;20031;-83
2021/12/03 02:31:04;;;;;;;265.38;60.80;;;;;;;-1.62;100.00;101096.50;5074347;28;20173;-83
2021/12/03 02:33:34;;;;;;;296.05;60.65;;;;;;;-1.81;100.00;101055.03;5073604;28;20069;-83
2021/12/03 02:36:00;;;;;;;257.02;58.28;;;;;;;-1.38;100.00;101122.78;5081589;28;20080;-83
2021/12/03 02:38:26;;;;;;;225.40;55.78;;;;;;;-1.38;100.00;101107.44;5074478;28;20115;-83
2021/12/03 02:40:54;;;;;;;224.43;55.85;;;;;;;-1.53;100.00;101086.56;5073238;28;20029;-83
2021/12/03 02:43:20;;;;;;;238.38;55.10;;;;;;;-1.55;100.00;101086.47;5073573;28;20028;-83
2021/12/03 02:45:46;;;;;;;189.70;52.88;;;;;;;-1.30;100.00;101113.66;5076230;28;20016;-84
2021/12/03 02:48:25;;;;;;;204.75;52.05;;;;;;;-1.34;100.00;101114.41;5076572;28;20039;-83
2021/12/03 02:50:59;;;;;;;186.80;52.42;;;;;;;-1.71;100.00;101045.94;5073676;28;20027;-83
2021/12/03 02:53:34;;;;;;;185.45;51.38;;;;;;;-1.67;100.00;101051.22;5073551;28;20024;-83
2021/12/03 02:56:00;;;;;;;196.40;52.40;;;;;;;-1.29;100.00;101106.84;5072651;28;20484;-83
2021/12/03 02:58:26;;;;;;;215.65;52.33;;;;;;;-1.23;100.00;101115.56;5073057;28;20036;-84
2021/12/03 03:00:53;;;;;;;201.35;52.85;;;;;;;-1.27;100.00;101106.06;5079123;28;20020;-84
2021/12/03 03:03:20;;;;;;;201.13;52.45;;;;;;;-1.26;100.00;101109.50;5093949;28;20032;-83
2021/12/03 03:05:53;;;;;;;214.13;52.38;;;;;;;-1.26;100.00;101106.94;5093563;28;20024;-83
2021/12/03 03:08:18;;;;;;;208.10;52.70;;;;;;;-1.22;100.00;101103.63;5075169;28;20024;-83
2021/12/03 03:10:44;;;;;;;203.10;52.95;;;;;;;-1.19;100.00;101107.16;5073103;28;20437;-84
2021/12/03 03:13:10;;;;;;;223.32;53.65;;;;;;;-1.22;100.00;101107.06;5073237;28;20020;-83
2021/12/03 03:15:39;;;;;;;238.05;56.40;;;;;;;-1.27;100.00;101095.84;5071849;28;20108;-84
2021/12/03 03:18:13;;;;;;;228.15;54.42;;;;;;;-1.26;100.00;101102.69;5072666;28;20029;-84
2021/12/03 03:20:41;;;;;;;244.98;57.30;;;;;;;-1.26;100.00;101082.22;5072941;28;20029;-84
2021/12/03 03:23:07;;;;;;;257.63;58.30;;;;;;;-1.20;100.00;101086.66;5072249;28;20035;-83
2021/12/03 03:25:32;;;;;;;249.55;58.08;;;;;;;-1.20;100.00;101087.50;5072901;28;20021;-84
2021/12/03 03:27:58;;;;;;;249.27;61.45;;;;;;;-1.19;100.00;101085.81;5071944;28;20051;-84
2021/12/03 03:30:23;;;;;;;272.08;56.83;;;;;;;-1.17;100.00;101091.84;5084322;28;20028;-84
2021/12/03 03:32:49;;;;;;;252.15;57.85;;;;;;;-1.14;100.00;101096.19;5092974;28;20020;-84
2021/12/03 03:35:15;;;;;;;269.55;56.40;;;;;;;-1.10;100.00;101100.56;5092865;28;20020;-84
2021/12/03 03:37:40;;;;;;;232.90;56.47;;;;;;;-1.11;100.00;101097.16;5081205;28;20043;-84
2021/12/03 03:40:08;;;;;;;255.32;54.65;;;;;;;-1.01;100.00;101111.06;5072498;28;20023;-84
2021/12/03 03:42:34;;;;;;;235.35;54.83;;;;;;;-1.04;100.00;101098.19;5072363;28;20012;-85
2021/12/03 03:45:00;;;;;;;224.88;55.03;;;;;;;-0.98;100.00;101109.47;5083150;28;20074;-84
2021/12/03 03:47:25;;;;;;;229.60;55.97;;;;;;;-0.97;100.00;101111.19;5084394;28;20078;-84
2021/12/03 03:49:51;;;;;;;268.05;58.63;;;;;;;-1.15;100.00;101073.97;5072512;28;20419;-85
2021/12/03 03:52:16;;;;;;;278.45;57.88;;;;;;;-0.96;100.00;101104.38;5071721;28;20052;-85
2021/12/03 03:54:42;;;;;;;273.58;59.05;;;;;;;-0.98;100.00;101093.25;5072464;28;20513;-85
2021/12/03 03:57:08;;;;;;;279.85;59.60;;;;;;;-0.94;100.00;101097.59;5071739;28;20476;-85
2021/12/03 04:02:07;;;;;;;;;;;;;;;-0.89;100.00;101098.59;5089916;28;20056;-85
2021/12/03 04:04:32;;;;;;;248.45;55.58;;;;;;;-0.85;100.00;101081.63;5091139;28;20279;-85
2021/12/03 04:06:58;;;;;;;259.08;54.55;;;;;;;-0.80;100.00;101088.59;5092103;28;20024;-86
2021/12/03 04:09:23;;;;;;;260.75;57.60;;;;;;;-0.79;100.00;101077.53;5092111;28;20028;-85
2021/12/03 04:11:51;;;;;;;245.60;55.20;;;;;;;-0.76;100.00;101069.94;5091843;28;20464;-85
2021/12/03 04:14:16;;;;;;;256.25;57.20;;;;;;;-0.72;100.00;101074.31;5092543;28;20036;-85
2021/12/03 04:16:41;;;;;;;249.32;54.40;;;;;;;-0.79;100.00;101049.38;5092233;28;20472;-85
2021/12/03 04:19:07;;;;;;;200.38;53.15;;;;;;;-0.77;100.00;101051.97;5090758;28;20055;-85
2021/12/03 04:21:32;;;;;;;227.10;54.60;;;;;;;-0.66;100.00;101065.91;5092042;28;20024;-85
2021/12/03 04:23:57;;;;;;;243.02;56.45;;;;;;;-0.62;100.00;101066.84;5092477;28;20381;-85
2021/12/03 04:26:23;;;;;;;252.88;55.03;;;;;;;-0.67;100.00;101051.38;5091497;28;20039;-86
2021/12/03 04:28:48;;;;;;;245.00;57.30;;;;;;;-0.63;100.00;101058.31;5092046;28;20038;-86
2021/12/03 04:31:14;;;;;;;252.15;56.75;;;;;;;-0.56;100.00;101069.56;5091400;28;20120;-86
2021/12/03 04:33:40;;;;;;;255.27;57.20;;;;;;;-0.60;100.00;101049.84;5091614;28;20056;-86
2021/12/03 04:36:05;;;;;;;235.30;58.83;;;;;;;-0.49;100.00;101053.56;5089940;28;20111;-86
2021/12/03 04:38:30;;;;;;;248.27;60.67;;;;;;;-0.47;100.00;101064.69;5090772;28;20031;-86
2021/12/03 04:40:56;;;;;;;266.52;61.38;;;;;;;-0.50;100.00;101060.34;5091416;28;20024;-86
2021/12/03 04:43:21;;;;;;;268.95;59.88;;;;;;;-0.58;100.00;101061.00;5092341;28;20532;-86
2021/12/03 04:45:47;;;;;;;265.88;62.50;;;;;;;-0.53;100.00;101059.41;5091885;28;20028;-86
2021/12/03 04:48:12;;;;;;;262.15;64.57;;;;;;;-0.45;100.00;101078.41;5091118;28;20387;-86
2021/12/03 04:50:40;;;;;;;285.58;66.30;;;;;;;-0.37;100.00;101083.72;5091747;28;20027;-86
2021/12/03 04:53:08;;;;;;;263.63;65.65;;;;;;;-0.38;100.00;101072.59;5090819;28;20482;-87
2021/12/03 04:55:37;;;;;;;260.83;61.08;;;;;;;-0.42;100.00;101075.06;5091304;28;20024;-87
2021/12/03 04:58:03;;;;;;;243.23;59.83;;;;;;;-0.47;100.00;101072.38;5091610;28;20092;-87
2021/12/03 05:00:33;;;;;;;237.48;60.35;;;;;;;-0.73;100.00;101023.06;5090895;28;20536;-86
2021/12/03 05:03:00;;;;;;;245.63;60.97;;;;;;;-0.43;100.00;101069.06;5091551;28;20036;-87
2021/12/03 05:05:31;;;;;;;220.68;57.13;;;;;;;-0.44;100.00;101069.03;5091446;28;20486;-87
2021/12/03 05:08:01;;;;;;;238.25;59.53;;;;;;;-0.52;100.00;101061.16;5091086;28;20032;-87
2021/12/03 05:10:33;;;;;;;215.27;56.83;;;;;;;-0.56;100.00;101036.28;5091041;28;20035;-86
2021/12/03 05:13:01;;;;;;;192.25;57.75;;;;;;;-0.51;100.00;101044.97;5091837;28;20024;-86
2021/12/03 05:15:26;;;;;;;199.90;54.22;;;;;;;-0.56;100.00;101037.16;5090789;28;20490;-86
2021/12/03 05:17:52;;;;;;;176.02;51.83;;;;;;;-0.51;100.00;101034.72;5091304;28;20068;-87
2021/12/03 05:20:17;;;;;;;169.27;52.05;;;;;;;-0.53;100.00;101036.34;5091904;28;20456;-87
2021/12/03 05:22:42;;;;;;;161.25;49.67;;;;;;;-0.72;100.00;101005.19;5090839;28;20028;-87
2021/12/03 05:25:09;;;;;;;169.45;49.38;;;;;;;-0.56;100.00;101043.97;5091112;28;20162;-86
2021/12/03 05:27:35;;;;;;;150.85;48.42;;;;;;;-0.55;100.00;101040.59;5091132;28;20035;-86
2021/12/03 05:30:01;;;;;;;139.15;46.88;;;;;;;-0.55;100.00;101045.72;5091000;28;20028;-86
2021/12/03 05:32:26;;;;;;;149.60;46.25;;;;;;;-0.57;100.00;101039.69;5090812;28;20035;-86
2021/12/03 05:34:51;;;;;;;137.25;43.78;;;;;;;-0.54;100.00;101060.25;5091221;28;20089;-85
2021/12/03 05:37:17;;;;;;;137.75;42.95;;;;;;;-0.58;100.00;101050.75;5090059;28;20028;-86
2021/12/03 05:39:42;;;;;;;135.60;43.78;;;;;;;-0.60;100.00;101062.66;5567010;22;19999;-86
2021/12/03 05:42:08;;;;;;;121.30;40.72;;;;;;;-0.61;100.00;101056.66;5078774;28;20480;-86
2021/12/03 05:44:35;;;;;;;135.77;44.72;;;;;;;-0.66;100.00;101037.75;5090559;28;20027;-86
2021/12/03 05:47:01;;;;;;;117.13;40.20;;;;;;;-0.68;100.00;101033.44;5090844;28;20103;-86
2021/12/03 05:49:27;;;;;;;132.45;41.08;;;;;;;-0.68;100.00;101048.81;5091458;28;20103;-86
2021/12/03 05:51:53;;;;;;;121.72;39.65;;;;;;;-0.65;100.00;101067.66;5094331;28;20031;-86
2021/12/03 05:54:19;;;;;;;113.38;39.03;;;;;;;-0.72;100.00;101053.84;5087582;28;20020;-85
2021/12/03 05:56:44;;;;;;;122.25;39.45;;;;;;;-0.62;100.00;101071.97;5074220;28;20032;-86
2021/12/03 05:59:10;;;;;;;112.53;40.00;;;;;;;-0.69;100.00;101052.16;5074792;28;20370;-85
2021/12/03 06:01:35;;;;;;;128.95;40.42;;;;;;;-0.65;100.00;101057.41;5074464;28;20479;-86
2021/12/03 06:04:00;;;;;;;119.88;37.40;;;;;;;-0.69;100.00;101041.94;5075438;28;20109;-86
2021/12/03 06:06:26;;;;;;;114.70;36.78;;;;;;;-0.69;100.00;101040.22;5082969;28;20483;-85
2021/12/03 06:08:51;;;;;;;113.68;36.90;;;;;;;-0.71;100.00;101039.34;5074713;28;20029;-86
2021/12/03 06:11:29;;;;;;;111.82;37.42;;;;;;;-0.62;100.00;101057.50;5073697;28;20085;-85
2021/12/03 06:13:54;;;;;;;110.88;35.17;;;;;;;-0.62;100.00;101048.94;5074666;28;20074;-86
2021/12/03 06:16:20;;;;;;;120.00;36.90;;;;;;;-0.63;100.00;101036.97;5074464;28;20119;-86
2021/12/03 06:18:45;;;;;;;112.70;35.63;;;;;;;-0.60;100.00;101039.59;5087672;28;20028;-86
2021/12/03 06:21:12;;;;;;;109.78;34.70;;;;;;;-0.60;100.00;101045.59;5091129;28;20092;-85
2021/12/03 06:23:39;;;;;;;108.07;33.67;;;;;;;-0.65;100.00;101023.28;5074183;28;20021;-85
2021/12/03 06:26:06;;;;;;;109.15;33.65;;;;;;;-0.55;100.00;101043.16;5073441;28;20034;-85
2021/12/03 06:28:32;;;;;;;108.85;32.40;;;;;;;-0.63;100.00;101030.13;5085388;28;20024;-84
2021/12/03 06:30:59;;;;;;;99.40;32.88;;;;;;;-0.59;100.00;101036.19;5089628;28;20538;-86
2021/12/03 06:33:24;;;;;;;91.38;28.90;;;;;;;-0.57;100.00;101037.97;5073685;28;20028;-85
2021/12/03 06:35:50;;;;;;;102.38;31.83;;;;;;;-0.59;100.00;101031.09;5073093;28;20024;-85
2021/12/03 06:38:16;;;;;;;100.75;31.67;;;;;;;-0.66;100.00;101018.97;5074079;28;20028;-85
2021/12/03 06:40:46;;;;;;;98.22;31.30;;;;;;;-0.66;100.00;101024.09;5091419;28;20040;-85
2021/12/03 06:43:12;;;;;;;107.32;31.33;;;;;;;-0.60;100.00;101029.34;5093959;28;20040;-85
2021/12/03 06:45:37;;;;;;;93.18;30.35;;;;;;;-0.59;100.00;101038.75;5094259;28;20463;-86
2021/12/03 06:48:03;;;;;;;91.75;29.13;;;;;;;-0.67;100.00;101030.03;5085755;28;20059;-85
2021/12/03 06:50:30;;;;;;;93.18;29.10;;;;;;;-0.69;100.00;101024.00;5073099;28;20028;-85
2021/12/03 06:53:17;;;;;;;95.78;28.55;;;;;;;-0.72;100.00;101030.81;5071662;28;20089;-85
2021/12/03 06:55:47;;;;;;;91.68;28.30;;;;;;;-0.61;100.00;101043.00;5077765;28;20390;-85
2021/12/03 06:58:14;;;;;;;87.13;28.55;;;;;;;-0.64;100.00;101038.66;5092134;28;20024;-86
2021/12/03 07:00:40;;;;;;;88.60;27.52;;;;;;;-0.90;100.00;101003.84;5085132;28;20020;-85
2021/12/03 07:03:05;;;;;;;96.75;28.58;;;;;;;-0.74;100.00;101029.03;5079045;28;20032;-86
2021/12/03 07:05:30;;;;;;;82.40;25.33;;;;;;;-0.67;100.00;101043.69;5073682;28;20040;-86
2021/12/03 07:07:56;;;;;;;79.00;24.20;;;;;;;-0.73;100.00;101038.41;5077071;28;20024;-86
2021/12/03 07:10:21;;;;;;;95.90;26.35;;;;;;;-0.74;100.00;101022.19;5093465;28;20036;-85
2021/12/03 07:12:48;;;;;;;79.57;25.63;;;;;;;-0.75;100.00;101025.59;5093934;28;20024;-86
2021/12/03 07:15:14;;;;;;;84.45;23.77;;;;;;;-0.82;100.00;101017.69;5092841;28;20024;-86
2021/12/03 07:17:39;;;;;;;74.32;23.25;;;;;;;-0.80;100.00;101016.91;5075944;28;20415;-86
2021/12/03 07:20:06;;;;;;;81.20;23.77;;;;;;;-0.69;100.00;101029.97;5073278;28;20025;-86
2021/12/03 07:22:33;;;;;;;76.53;22.08;;;;;;;-0.65;100.00;101028.41;5072509;28;20028;-86
2021/12/03 07:24:58;;;;;;;76.15;22.92;;;;;;;-0.67;100.00;101022.34;5088364;28;20024;-86
2021/12/03 07:27:23;;;;;;;70.70;21.30;;;;;;;-0.64;100.00;101019.88;5092215;28;20383;-85
2021/12/03 07:29:49;;;;;;;71.22;21.45;;;;;;;-0.66;100.00;101008.72;5073383;28;20024;-85
2021/12/03 07:32:16;;;;;;;65.38;20.00;;;;;;;-0.64;100.00;101012.19;5073356;28;20115;-86
2021/12/03 07:34:42;;;;;;;66.97;19.38;;;;;;;-0.69;100.00;101003.53;5073034;28;20501;-86
2021/12/03 07:37:08;;;;;;;64.32;19.05;;;;;;;-0.65;100.00;101008.78;5071266;28;20060;-85
2021/12/03 07:39:34;;;;;;;67.90;19.23;;;;;;;-0.65;100.00;101020.72;5072976;28;20143;-86
2021/12/03 07:41:59;;;;;;;61.50;17.50;;;;;;;-0.81;100.00;100994.72;5072192;28;20494;-86
2021/12/03 07:44:24;;;;;;;68.07;18.98;;;;;;;-0.66;100.00;101013.84;5072057;28;20060;-85
2021/12/03 07:46:50;;;;;;;62.35;17.90;;;;;;;-0.73;100.00;101008.56;5072566;28;20074;-85
2021/12/03 07:49:16;;;;;;;69.47;17.77;;;;;;;-0.59;100.00;101015.72;5071504;28;20056;-85
2021/12/03 07:51:41;;;;;;;56.38;17.42;;;;;;;-0.64;100.00;100996.84;5072055;28;20024;-85
2021/12/03 07:54:07;;;;;;;71.40;18.75;;;;;;;-0.58;100.00;101002.97;5079271;22;20052;-85
2021/12/03 07:56:32;;;;;;;54.13;16.13;;;;;;;-0.51;100.00;101011.66;5071125;28;20082;-85
2021/12/03 07:58:57;;;;;;;68.35;18.85;;;;;;;-0.47;100.00;101014.31;5072759;28;20074;-86
2021/12/03 08:01:24;;;;;;;57.65;15.88;;;;;;;-0.44;100.00;101010.13;5071304;28;20407;-85
2021/12/03 08:03:49;;;;;;;62.13;16.23;;;;;;;-0.41;100.00;101018.75;5070905;28;20036;-85
2021/12/03 08:06:15;;;;;;;57.72;16.33;;;;;;;-0.41;100.00;101012.75;5071592;28;20036;-85
2021/12/03 08:08:41;;;;;;;50.38;14.32;;;;;;;-0.38;100.00;101007.72;5072401;28;20025;-83
2021/12/03 08:11:07;;;;;;;49.88;13.73;;;;;;;-0.37;100.00;101004.31;5067254;28;20020;-84
2021/12/03 08:13:33;;;;;;;51.42;14.55;;;;;;;-0.35;100.00;101016.31;5071701;28;20028;-83
2021/12/03 08:15:59;;;;;;;44.47;12.65;;;;;;;-0.31;100.00;101013.00;5072234;28;20039;-85
2021/12/03 08:18:25;;;;;;;49.75;14.77;;;;;;;-0.29;100.00;101008.78;5071721;28;20153;-84
2021/12/03 08:20:52;;;;;;;56.55;13.50;;;;;;;-0.52;100.00;100958.72;5070981;28;20027;-84
2021/12/03 08:23:18;;;;;;;50.38;12.50;;;;;;;-0.24;100.00;100988.38;5071505;28;20032;-84
2021/12/03 08:25:43;;;;;;;37.65;12.15;;;;;;;-0.19;100.00;100996.19;5071534;28;20028;-85
2021/12/03 08:28:09;;;;;;;56.45;12.10;;;;;;;-0.21;100.00;100985.03;5062616;28;20071;-84
2021/12/03 08:30:35;;;;;;;47.10;12.18;;;;;;;-0.13;100.00;101004.88;5054309;28;20037;-85
2021/12/03 08:33:00;;;;;;;44.67;11.05;;;;;;;-0.13;100.00;100997.19;5071385;28;20025;-84
2021/12/03 08:35:26;;;;;;;44.85;11.75;;;;;;;-0.04;100.00;101002.50;5072209;28;20031;-85
2021/12/03 08:37:52;;;;;;;37.70;11.15;;;;;;;-0.04;100.00;101012.75;5059187;28;20044;-84
2021/12/03 08:40:21;;;;;;;48.35;13.13;;;;;;;0.01;100.00;101012.88;5059767;28;20032;-84
2021/12/03 08:42:48;;;;;;;42.45;10.45;;;;;;;0.03;100.00;101002.66;5064693;28;20132;-84
2021/12/03 08:45:16;;;;;;;41.47;11.80;;;;;;;0.04;100.00;100991.59;5051898;28;20025;-85
2021/12/03 08:47:44;;;;;;;47.70;10.88;;;;;;;0.07;100.00;101013.00;5051624;28;20032;-84
2021/12/03 08:50:13;;;;;;;47.95;11.95;;;;;;;0.08;100.00;101007.03;5051745;28;20025;-85
2021/12/03 08:55:10;;;;;;;43.85;12.65;;;;;;;0.23;100.00;100992.00;5071883;28;20421;-84
2021/12/03 08:57:36;;;;;;;43.13;10.73;;;;;;;0.20;100.00;100975.69;5071787;28;20032;-85
2021/12/03 09:00:12;;;;;;;40.85;11.82;;;;;;;0.35;100.00;100993.06;5071201;28;20601;-84
2021/12/03 09:02:37;;;;;;;45.40;11.65;;;;;;;0.39;100.00;100984.59;5071341;28;20024;-84
2021/12/03 09:05:04;;;;;;;42.30;12.10;;;;;;;0.41;100.00;100981.25;5071134;28;20044;-84
2021/12/03 09:07:29;;;;;;;45.92;11.45;;;;;;;0.38;100.00;100977.75;5071077;28;20040;-85
2021/12/03 09:09:54;;;;;;;47.88;11.18;;;;;;;0.45;100.00;100989.84;5071207;28;20380;-85
2021/12/03 09:12:20;;;;;;;36.17;11.07;;;;;;;0.48;100.00;100987.34;5071469;28;20035;-84
2021/12/03 09:14:50;;;;;;;42.10;11.20;;;;;;;0.53;100.00;100995.16;5070532;28;20460;-87
2021/12/03 09:19:52;;;;;;;39.13;11.80;;;;;;;0.63;100.00;100986.81;5070385;28;20029;-83
2021/12/03 09:22:32;;;;;;;38.05;10.88;;;;;;;0.67;100.00;100979.19;5063666;28;20403;-82
2021/12/03 09:24:57;;;;;;;36.83;11.90;;;;;;;0.70;100.00;100970.69;5072098;28;20024;-83
2021/12/03 09:27:23;;;;;;;34.22;11.20;;;;;;;0.74;100.00;100967.34;5075188;28;20365;-83
2021/12/03 09:29:49;;;;;;;41.33;11.75;;;;;;;0.79;100.00;100968.28;5074108;28;20093;-82
2021/12/03 09:32:20;;;;;;;38.00;10.50;;;;;;;0.82;100.00;100963.22;5074594;28;20039;-83
2021/12/03 09:34:45;;;;;;;35.47;10.68;;;;;;;0.87;100.00;100965.84;5073965;28;20036;-84
2021/12/03 09:37:11;;;;;;;40.92;10.27;;;;;;;0.92;100.00;100972.81;5074845;28;20037;-82
2021/12/03 09:39:40;;;;;;;39.60;9.05;;;;;;;0.95;100.00;100969.44;5074332;28;20487;-82
2021/12/03 09:42:05;;;;;;;39.90;8.95;;;;;;;0.89;100.00;100966.75;5062827;28;20078;-83
2021/12/03 09:44:31;;;;;;;30.23;8.57;;;;;;;0.94;100.00;100967.69;5068701;28;20029;-84
2021/12/03 09:46:57;;;;;;;27.08;8.27;;;;;;;0.99;100.00;100965.22;5070665;28;20016;-82
2021/12/03 09:49:34;;;;;;;24.45;8.13;;;;;;;1.03;100.00;100970.44;5063488;28;20024;-84
2021/12/03 09:54:39;;;;;;;22.08;7.95;;;;;;;1.09;100.00;100944.00;5067370;28;20549;-83
2021/12/03 09:57:16;;;;;;;23.48;8.10;;;;;;;1.11;100.00;100942.31;5071944;28;20480;-84
2021/12/03 10:02:30;;;;;;;34.00;7.80;;;;;;;1.10;100.00;100923.47;5062746;28;20028;-83
2021/12/03 10:13:32;;;;;;;20.42;7.68;;;;;;;1.23;100.00;100910.84;5071620;28;19924;-83
2021/12/03 10:16:02;;;;;;;24.48;8.43;;;;;;;1.26;100.00;100926.28;5074873;28;20080;-84
2021/12/03 10:18:34;;;;;;;25.17;7.70;;;;;;;1.30;100.00;100921.22;5073813;28;20020;-84
2021/12/03 10:26:26;;;;;;;27.10;8.07;;;;;;;1.44;100.00;100907.72;5069189;28;20551;-83
2021/12/03 10:34:41;;;;;;;20.50;7.22;;;;;;;1.50;100.00;100872.69;5073452;28;20078;-82
2021/12/03 10:48:15;;;;;;;25.65;8.68;;;;;;;1.74;100.00;100843.06;5068852;28;20392;-82
2021/12/03 10:53:37;;;;;;;21.08;7.85;;;;;;;1.80;100.00;100840.56;5073162;28;20043;-82
2021/12/03 10:56:28;;;;;;;21.13;8.18;;;;;;;1.74;100.00;100813.06;5072709;28;20067;-82
2021/12/03 11:15:22;;;;;;;24.30;8.85;;;;;;;2.24;100.00;100792.19;5071613;28;20503;-82
2021/12/03 11:20:58;;;;;;;16.38;7.18;;;;;;;2.30;100.00;100778.53;5072277;28;20115;-82
2021/12/03 11:31:38;;;;;;;18.75;7.78;;;;;;;2.46;100.00;100746.94;5064863;28;20036;-82
2021/12/03 11:55:18;;;;;;;15.18;5.82;;;;;;;2.87;100.00;100730.91;5060876;28;20053;-82
2021/12/03 12:05:33;;;;;;;11.77;5.05;;;;;;;2.92;100.00;100700.91;5071782;28;20412;-80
2021/12/03 12:55:50;;;;;;;12.50;5.18;;;;;;;2.95;99.46;100613.38;5088850;28;20423;-82
2021/12/03 12:58:11;;;;;;;11.65;4.93;;;;;;;3.00;96.40;100606.50;5087891;28;20178;-82
2021/12/03 13:13:42;;;;;;;11.32;4.75;;;;;;;2.93;96.37;100603.91;5086878;28;20535;-81
2021/12/03 13:31:39;;;;;;;10.40;4.22;;;;;;;2.79;96.24;100580.69;5091694;28;20115;-82
2021/12/03 14:36:57;;;;;;;10.68;4.63;;;;;;;2.43;100.00;100517.91;5090690;28;20040;-84
2021/12/03 14:44:59;;;;;;;9.68;4.78;;;;;;;2.45;100.00;100525.63;5080972;28;20040;-84
2021/12/03 14:55:39;;;;;;;10.18;5.00;;;;;;;2.42;100.00;100518.75;5089578;28;20363;-84
2021/12/03 14:58:22;;;;;;;11.23;5.05;;;;;;;2.41;100.00;100522.16;5092280;28;20052;-83
2021/12/03 15:00:59;;;;;;;8.23;4.75;;;;;;;2.38;100.00;100518.72;5092716;28;20390;-84
2021/12/03 15:06:17;;;;;;;11.25;5.60;;;;;;;2.43;100.00;100535.91;5076047;28;20039;-82
2021/12/03 15:32:47;;;;;;;7.35;4.78;;;;;;;2.37;100.00;100510.16;5054005;28;1009347;-86
2021/12/03 15:35:12;;;;;;;7.93;5.28;;;;;;;2.41;100.00;100519.59;5079998;28;20043;-85
2021/12/03 15:54:26;;;;;;;;;;;;;;;2.32;100.00;100492.13;5079283;28;20114;-84
2021/12/03 16:05:55;;;;;;;11.43;7.13;;;;;;;2.30;100.00;100478.41;5092104;28;20063;-84
2021/12/03 16:08:01;;;;;;;14.35;8.50;;;;;;;2.31;100.00;100479.25;5083654;28;20112;-84
2021/12/03 16:10:32;;;;;;;8.80;7.15;;;;;;;2.34;100.00;100474.13;5091006;28;20024;-83